createdAt,value
2023-02-24T00:01:13.044Z,8.95
2023-02-24T00:03:44.811Z,9.28
2023-02-24T00:06:13.695Z,9.51
2023-02-24T00:08:42.242Z,9.13
2023-02-24T00:11:12.864Z,9.07
2023-02-24T00:13:40.585Z,8.89
2023-02-24T00:16:08.648Z,8.65
2023-02-24T00:18:36.456Z,8.71
2023-02-24T00:21:13.401Z,8.75
2023-02-24T00:23:43.982Z,8.44
2023-02-24T00:26:13.015Z,8.67
2023-02-24T00:28:41.282Z,8.48
2023-02-24T00:31:11.208Z,8.12
2023-02-24T00:33:39.631Z,8.41
2023-02-24T00:36:09.359Z,8.29
2023-02-24T00:38:36.917Z,8.39
2023-02-24T00:41:12.519Z,8.56
2023-02-24T00:43:40.128Z,7.79
2023-02-24T00:46:11.445Z,7.71
2023-02-24T00:48:41.608Z,7.61
2023-02-24T00:51:11.187Z,7.68
2023-02-24T00:53:39.424Z,7.39
2023-02-24T00:56:08.243Z,7.51
2023-02-24T00:58:37.410Z,7.57
2023-02-24T01:01:05.399Z,7.03
2023-02-24T01:03:33.739Z,7.33
2023-02-24T01:06:03.257Z,7.34
2023-02-24T01:08:36.378Z,7.14
2023-02-24T01:11:22.546Z,7.45
2023-02-24T01:13:51.660Z,7.35
2023-02-24T01:16:19.567Z,7.13
2023-02-24T01:18:48.606Z,7.21
2023-02-24T01:21:16.482Z,6.75
2023-02-24T01:23:46.153Z,6.33
2023-02-24T01:26:14.165Z,6.26
2023-02-24T01:28:41.635Z,6.59
2023-02-24T01:31:10.946Z,6.49
2023-02-24T01:33:39.211Z,6.88
2023-02-24T01:36:11.128Z,6.81
2023-02-24T01:38:39.135Z,6.25
2023-02-24T01:41:07.515Z,6.08
2023-02-24T01:43:35.407Z,6.23
2023-02-24T01:46:02.791Z,6.30
2023-02-24T01:48:31.631Z,6.33
2023-02-24T01:50:59.348Z,6.20
2023-02-24T01:53:26.778Z,5.76
2023-02-24T01:55:54.485Z,5.55
2023-02-24T01:58:26.672Z,5.79
2023-02-24T02:00:54.285Z,5.70
2023-02-24T02:03:30.711Z,6.05
2023-02-24T02:06:03.570Z,5.99
2023-02-24T02:08:31.678Z,6.11
2023-02-24T02:11:04.393Z,6.35
2023-02-24T02:13:35.720Z,6.16
2023-02-24T02:16:34.182Z,6.11
2023-02-24T02:19:20.301Z,6.16
2023-02-24T02:22:02.300Z,5.49
2023-02-24T02:24:53.370Z,5.58
2023-02-24T02:27:34.770Z,6.09
2023-02-24T02:30:45.676Z,5.58
2023-02-24T02:34:03.063Z,5.46
2023-02-24T02:36:38.703Z,5.36
2023-02-24T02:39:14.686Z,5.15
2023-02-24T02:41:53.088Z,5.33
2023-02-24T02:44:25.068Z,5.66
2023-02-24T02:47:01.784Z,5.82
2023-02-24T02:49:37.057Z,5.29
2023-02-24T02:52:13.710Z,5.80
2023-02-24T02:54:49.734Z,5.97
2023-02-24T02:57:21.653Z,5.44
2023-02-24T02:59:54.372Z,5.48
2023-02-24T03:02:28.650Z,5.09
2023-02-24T03:04:59.637Z,5.48
2023-02-24T03:07:35.004Z,5.66
2023-02-24T03:10:10.790Z,5.56
2023-02-24T03:12:42.203Z,6.01
2023-02-24T03:15:12.859Z,5.96
2023-02-24T03:17:45.349Z,5.47
2023-02-24T03:20:22.425Z,5.81
2023-02-24T03:22:57.487Z,5.78
2023-02-24T03:25:30.799Z,5.46
2023-02-24T03:28:05.863Z,5.51
2023-02-24T03:30:44.237Z,5.85
2023-02-24T03:33:20.961Z,6.30
2023-02-24T03:35:51.461Z,6.09
2023-02-24T03:38:23.930Z,5.78
2023-02-24T03:40:51.682Z,6.29
2023-02-24T03:43:25.501Z,6.24
2023-02-24T03:45:54.182Z,6.59
2023-02-24T03:48:23.594Z,6.53
2023-02-24T03:50:51.557Z,6.84
2023-02-24T03:53:33.797Z,6.63
2023-02-24T03:56:11.647Z,6.27
2023-02-24T03:58:52.314Z,6.52
2023-02-24T04:01:27.410Z,6.93
2023-02-24T04:04:02.439Z,6.48
2023-02-24T04:06:36.422Z,6.71
2023-02-24T04:09:11.608Z,7.26
2023-02-24T04:11:45.978Z,6.38
2023-02-24T04:14:20.013Z,6.58
2023-02-24T04:16:57.005Z,6.79
2023-02-24T04:19:29.157Z,6.35
2023-02-24T04:21:57.907Z,6.20
2023-02-24T04:24:30.311Z,6.39
2023-02-24T04:27:00.058Z,7.12
2023-02-24T04:29:35.467Z,6.54
2023-02-24T04:32:06.142Z,6.49
2023-02-24T04:34:33.780Z,6.48
2023-02-24T04:37:02.323Z,6.93
2023-02-24T04:39:32.228Z,6.26
2023-02-24T04:42:01.602Z,6.65
2023-02-24T04:44:29.250Z,6.64
2023-02-24T04:46:57.035Z,6.61
2023-02-24T04:49:24.491Z,6.14
2023-02-24T04:51:51.985Z,6.80
2023-02-24T04:54:21.371Z,6.44
2023-02-24T04:56:52.066Z,6.40
2023-02-24T04:59:20.296Z,6.78
2023-02-24T05:01:51.551Z,6.75
2023-02-24T05:04:19.192Z,6.72
2023-02-24T05:06:47.398Z,6.33
2023-02-24T05:09:18.165Z,6.56
2023-02-24T05:11:48.944Z,6.70
2023-02-24T05:14:20.866Z,7.55
2023-02-24T05:16:49.735Z,6.79
2023-02-24T05:19:36.866Z,7.22
2023-02-24T05:22:06.994Z,7.25
2023-02-24T05:24:35.260Z,7.03
2023-02-24T05:27:03.939Z,7.46
2023-02-24T05:29:36.609Z,7.84
2023-02-24T05:32:05.688Z,7.37
2023-02-24T05:34:34.438Z,7.55
2023-02-24T05:37:10.202Z,7.71
2023-02-24T05:39:38.027Z,6.23
2023-02-24T05:42:07.199Z,7.34
2023-02-24T05:44:36.465Z,7.01
2023-02-24T05:47:05.626Z,7.40
2023-02-24T05:49:35.462Z,7.62
2023-02-24T05:52:07.765Z,7.76
2023-02-24T05:54:38.510Z,7.18
2023-02-24T05:57:08.940Z,7.24
2023-02-24T05:59:37.880Z,6.98
2023-02-24T06:02:09.355Z,7.39
2023-02-24T06:04:46.413Z,6.99
2023-02-24T06:07:19.089Z,7.15
2023-02-24T06:09:50.033Z,7.60
2023-02-24T06:12:19.007Z,7.54
2023-02-24T06:14:47.885Z,7.07
2023-02-24T06:17:16.985Z,6.93
2023-02-24T06:19:44.497Z,7.53
2023-02-24T06:22:14.783Z,7.65
2023-02-24T06:24:44.349Z,7.79
2023-02-24T06:27:17.739Z,7.41
2023-02-24T06:29:46.014Z,6.93
2023-02-24T06:32:14.901Z,7.11
2023-02-24T06:34:42.506Z,7.53
2023-02-24T06:37:14.308Z,7.27
2023-02-24T06:39:42.959Z,7.44
2023-02-24T06:42:12.263Z,7.22
2023-02-24T06:44:41.194Z,7.00
2023-02-24T06:47:13.982Z,7.52
2023-02-24T06:49:42.971Z,7.29
2023-02-24T06:52:10.999Z,7.28
2023-02-24T06:54:39.040Z,7.04
2023-02-24T06:57:09.777Z,7.42
2023-02-24T06:59:37.273Z,7.74
2023-02-24T07:02:04.685Z,7.93
2023-02-24T07:04:43.542Z,7.61
2023-02-24T07:07:14.192Z,7.74
2023-02-24T07:09:43.795Z,7.23
2023-02-24T07:12:12.488Z,7.57
2023-02-24T07:14:40.393Z,7.13
2023-02-24T07:17:08.376Z,7.41
2023-02-24T07:19:36.730Z,6.71
2023-02-24T07:22:04.573Z,6.87
2023-02-24T07:24:36.450Z,7.05
2023-02-24T07:27:06.666Z,7.14
2023-02-24T07:29:35.536Z,7.23
2023-02-24T07:32:05.583Z,7.45
2023-02-24T07:34:34.152Z,7.31
2023-02-24T07:37:06.613Z,7.15
2023-02-24T07:39:36.773Z,7.02
2023-02-24T07:42:05.331Z,6.58
2023-02-24T07:44:33.094Z,5.88
2023-02-24T07:47:00.719Z,6.65
2023-02-24T07:49:30.325Z,6.75
2023-02-24T07:51:58.584Z,7.51
2023-02-24T07:54:30.009Z,6.11
2023-02-24T07:57:00.054Z,7.01
2023-02-24T07:59:29.875Z,7.28
2023-02-24T08:01:58.024Z,7.49
2023-02-24T08:04:27.733Z,7.67
2023-02-24T08:07:02.418Z,6.69
2023-02-24T08:10:07.955Z,6.46
2023-02-24T08:12:42.581Z,7.08
2023-02-24T08:15:17.956Z,7.05
2023-02-24T08:17:47.321Z,6.19
2023-02-24T08:20:25.820Z,7.10
2023-02-24T08:22:55.132Z,7.51
2023-02-24T08:25:25.282Z,7.56
2023-02-24T08:28:07.515Z,7.78
2023-02-24T08:30:39.776Z,6.73
2023-02-24T08:33:09.926Z,8.07
2023-02-24T08:35:44.328Z,8.05
2023-02-24T08:38:15.338Z,7.74
2023-02-24T08:40:58.584Z,8.27
2023-02-24T08:43:34.403Z,7.74
2023-02-24T08:46:10.216Z,8.47
2023-02-24T08:48:42.173Z,7.95
2023-02-24T08:51:15.075Z,8.23
2023-02-24T08:53:43.578Z,8.27
2023-02-24T08:56:14.078Z,8.24
2023-02-24T08:58:47.762Z,8.65
2023-02-24T09:01:24.082Z,8.22
2023-02-24T09:03:55.130Z,8.49
2023-02-24T09:06:26.215Z,7.11
2023-02-24T09:09:17.067Z,7.22
2023-02-24T09:11:45.800Z,8.02
2023-02-24T09:14:26.828Z,7.79
2023-02-24T09:17:06.144Z,6.95
2023-02-24T09:20:02.238Z,8.33
2023-02-24T09:22:32.565Z,7.95
2023-02-24T09:25:23.879Z,7.81
2023-02-24T09:27:55.136Z,7.73
2023-02-24T09:30:50.816Z,6.99
2023-02-24T09:33:21.382Z,7.88
2023-02-24T09:36:02.871Z,7.71
2023-02-24T09:38:49.269Z,7.76
2023-02-24T09:41:31.680Z,8.24
2023-02-24T09:44:07.401Z,8.47
2023-02-24T09:46:42.705Z,7.66
2023-02-24T09:49:17.280Z,8.82
2023-02-24T09:51:45.578Z,9.40
2023-02-24T09:54:16.836Z,8.77
2023-02-24T09:57:06.978Z,8.07
2023-02-24T09:59:51.057Z,8.98
2023-02-24T10:02:39.428Z,7.87
2023-02-24T10:05:19.493Z,8.44
2023-02-24T10:07:48.086Z,8.29
2023-02-24T10:10:21.101Z,8.93
2023-02-24T10:12:52.639Z,8.90
2023-02-24T10:15:43.680Z,8.92
2023-02-24T10:18:27.765Z,9.35
2023-02-24T10:21:02.822Z,7.88
2023-02-24T10:23:45.121Z,8.67
2023-02-24T10:26:30.416Z,8.49
2023-02-24T10:29:09.149Z,8.13
2023-02-24T10:31:45.996Z,8.36
2023-02-24T10:34:20.810Z,8.12
2023-02-24T10:36:50.561Z,8.84
2023-02-24T10:39:25.296Z,9.23
2023-02-24T10:41:57.537Z,7.43
2023-02-24T10:44:27.264Z,7.28
2023-02-24T10:47:11.530Z,7.23
2023-02-24T10:49:56.928Z,7.28
2023-02-24T10:52:50.664Z,6.82
2023-02-24T10:55:50.640Z,7.80
2023-02-24T10:58:28.687Z,8.46
2023-02-24T11:01:13.450Z,8.06
2023-02-24T11:03:48.000Z,7.58
2023-02-24T11:06:30.882Z,7.44
2023-02-24T11:09:19.088Z,7.10
2023-02-24T11:12:05.442Z,7.28
2023-02-24T11:14:52.256Z,7.85
2023-02-24T11:17:26.913Z,7.83
2023-02-24T11:20:01.206Z,7.84
2023-02-24T11:22:33.660Z,6.19
2023-02-24T11:25:06.567Z,7.53
2023-02-24T11:27:34.741Z,6.20
2023-02-24T11:30:14.844Z,7.19
2023-02-24T11:32:54.862Z,6.61
2023-02-24T11:35:27.265Z,6.76
2023-02-24T11:38:05.990Z,5.66
2023-02-24T11:40:38.010Z,6.90
2023-02-24T11:43:11.813Z,7.36
2023-02-24T11:45:44.080Z,7.55
2023-02-24T11:48:16.979Z,10.51
2023-02-24T11:50:48.153Z,11.33
2023-02-24T11:53:26.437Z,11.17
2023-02-24T11:56:03.157Z,11.46
2023-02-24T11:58:40.076Z,10.35
2023-02-24T12:01:15.822Z,11.35
2023-02-24T12:03:51.856Z,10.98
2023-02-24T12:06:23.743Z,8.70
2023-02-24T12:08:57.986Z,8.53
2023-02-24T12:11:36.729Z,7.78
2023-02-24T12:14:16.718Z,7.96
2023-02-24T12:16:48.033Z,7.80
2023-02-24T12:19:20.165Z,8.07
2023-02-24T12:21:52.954Z,7.35
2023-02-24T12:24:22.258Z,6.70
2023-02-24T12:27:03.123Z,5.84
2023-02-24T12:29:48.418Z,7.67
2023-02-24T12:32:25.142Z,7.84
2023-02-24T12:35:06.739Z,7.73
2023-02-24T12:37:48.418Z,7.91
2023-02-24T12:40:30.924Z,7.11
2023-02-24T12:43:09.194Z,7.73
2023-02-24T12:45:47.776Z,8.13
2023-02-24T12:48:31.819Z,7.44
2023-02-24T12:51:05.571Z,7.13
2023-02-24T12:53:42.320Z,6.87
2023-02-24T12:56:19.227Z,6.61
2023-02-24T12:58:50.692Z,6.82
2023-02-24T13:01:25.631Z,6.80
2023-02-24T13:04:12.503Z,6.67
2023-02-24T13:06:53.052Z,7.12
2023-02-24T13:09:30.231Z,7.42
2023-02-24T13:12:04.847Z,7.90
2023-02-24T13:14:35.917Z,7.51
2023-02-24T13:17:06.127Z,7.68
2023-02-24T13:19:33.918Z,6.26
2023-02-24T13:22:07.098Z,6.52
2023-02-24T13:24:34.886Z,6.32
2023-02-24T13:27:09.042Z,6.65
2023-02-24T13:29:46.820Z,6.97
2023-02-24T13:32:31.585Z,6.93
2023-02-24T13:35:01.535Z,6.94
2023-02-24T13:37:35.644Z,7.17
2023-02-24T13:40:23.251Z,6.32
2023-02-24T13:43:01.075Z,6.92
2023-02-24T13:45:30.172Z,6.34
2023-02-24T13:48:37.960Z,5.32
2023-02-24T13:51:23.724Z,5.88
2023-02-24T13:54:08.303Z,6.60
2023-02-24T13:56:44.625Z,6.45
2023-02-24T13:59:39.603Z,6.74
2023-02-24T14:02:16.377Z,6.35
2023-02-24T14:04:49.183Z,6.38
2023-02-24T14:07:21.981Z,5.82
2023-02-24T14:09:53.358Z,5.76
2023-02-24T14:12:27.873Z,6.33
2023-02-24T14:14:57.493Z,5.92
2023-02-24T14:17:28.857Z,6.32
2023-02-24T14:20:08.979Z,5.88
2023-02-24T14:22:44.080Z,6.88
2023-02-24T14:25:12.852Z,6.33
2023-02-24T14:27:41.067Z,6.48
2023-02-24T14:30:23.754Z,6.94
2023-02-24T14:32:51.342Z,5.69
2023-02-24T14:35:24.318Z,5.14
2023-02-24T14:37:51.747Z,5.34
2023-02-24T14:40:21.887Z,5.51
2023-02-24T14:42:50.455Z,6.35
2023-02-24T14:45:22.946Z,5.74
2023-02-24T14:47:50.463Z,6.02
2023-02-24T14:50:19.906Z,5.90
2023-02-24T14:52:51.641Z,6.07
2023-02-24T14:55:22.181Z,6.27
2023-02-24T14:57:56.243Z,6.24
2023-02-24T15:00:28.926Z,6.32
2023-02-24T15:03:05.270Z,6.02
2023-02-24T15:05:33.165Z,6.01
2023-02-24T15:08:03.841Z,5.47
2023-02-24T15:10:32.495Z,5.48
2023-02-24T15:13:13.413Z,6.23
2023-02-24T15:15:42.715Z,6.97
2023-02-24T15:18:18.883Z,6.97
2023-02-24T15:20:47.755Z,7.08
2023-02-24T15:23:27.191Z,6.67
2023-02-24T15:25:54.715Z,6.03
2023-02-24T15:28:25.629Z,6.35
2023-02-24T15:31:02.150Z,6.37
2023-02-24T15:33:35.042Z,7.13
2023-02-24T15:36:07.712Z,6.61
2023-02-24T15:38:37.257Z,7.22
2023-02-24T15:41:06.632Z,6.45
2023-02-24T15:43:37.105Z,6.69
2023-02-24T15:46:17.215Z,5.94
2023-02-24T15:48:45.876Z,6.25
2023-02-24T15:51:22.613Z,6.74
2023-02-24T15:53:50.106Z,7.29
2023-02-24T15:56:18.181Z,6.25
2023-02-24T15:58:45.621Z,6.58
2023-02-24T16:01:13.659Z,6.51
2023-02-24T16:03:43.142Z,6.94
2023-02-24T16:06:18.265Z,6.22
2023-02-24T16:08:46.795Z,5.85
2023-02-24T16:11:17.522Z,5.91
2023-02-24T16:13:48.158Z,6.20
2023-02-24T16:16:15.619Z,6.54
2023-02-24T16:18:45.023Z,6.38
2023-02-24T16:21:13.714Z,6.44
2023-02-24T16:23:41.318Z,6.05
2023-02-24T16:26:15.460Z,7.24
2023-02-24T16:28:43.413Z,6.31
2023-02-24T16:31:10.949Z,6.06
2023-02-24T16:33:53.273Z,6.21
2023-02-24T16:36:23.864Z,6.59
2023-02-24T16:38:51.763Z,5.88
2023-02-24T16:41:19.637Z,6.11
2023-02-24T16:43:47.358Z,6.10
2023-02-24T16:46:17.624Z,6.98
2023-02-24T16:48:47.605Z,6.56
2023-02-24T16:51:15.912Z,6.00
2023-02-24T16:53:44.896Z,5.59
2023-02-24T16:56:15.043Z,5.09
2023-02-24T16:58:42.566Z,6.15
2023-02-24T17:01:17.204Z,6.17
2023-02-24T17:03:49.687Z,6.56
2023-02-24T17:06:17.131Z,5.87
2023-02-24T17:08:47.073Z,6.58
2023-02-24T17:11:17.163Z,6.75
2023-02-24T17:13:44.764Z,6.74
2023-02-24T17:16:13.985Z,6.79
2023-02-24T17:18:41.756Z,6.45
2023-02-24T17:21:10.899Z,6.07
2023-02-24T17:23:38.299Z,6.25
2023-02-24T17:26:07.196Z,6.57
2023-02-24T17:28:37.154Z,7.24
2023-02-24T17:31:05.352Z,6.75
2023-02-24T17:33:33.721Z,7.19
2023-02-24T17:36:01.682Z,7.32
2023-02-24T17:38:29.090Z,6.43
2023-02-24T17:40:57.570Z,6.70
2023-02-24T17:43:26.352Z,5.92
2023-02-24T17:45:53.876Z,6.15
2023-02-24T17:48:22.182Z,6.52
2023-02-24T17:50:51.938Z,6.28
2023-02-24T17:53:19.380Z,5.99
2023-02-24T17:56:01.896Z,5.57
2023-02-24T17:58:31.654Z,6.47
2023-02-24T18:00:59.250Z,6.17
2023-02-24T18:03:26.807Z,6.21
2023-02-24T18:06:00.129Z,7.06
2023-02-24T18:08:27.789Z,7.38
2023-02-24T18:10:55.231Z,6.71
2023-02-24T18:13:22.719Z,6.73
2023-02-24T18:15:51.716Z,7.12
2023-02-24T18:18:19.252Z,7.04
2023-02-24T18:20:47.549Z,7.04
2023-02-24T18:23:15.178Z,7.18
2023-02-24T18:25:42.818Z,7.28
2023-02-24T18:28:10.623Z,6.84
2023-02-24T18:30:39.375Z,6.54
2023-02-24T18:33:08.369Z,7.27
2023-02-24T18:35:38.355Z,7.22
2023-02-24T18:38:06.134Z,7.23
2023-02-24T18:40:33.560Z,6.93
2023-02-24T18:43:01.061Z,7.65
2023-02-24T18:45:28.509Z,7.47
2023-02-24T18:47:55.972Z,6.53
2023-02-24T18:50:25.123Z,6.24
2023-02-24T18:52:52.950Z,6.84
2023-02-24T18:55:22.137Z,6.35
2023-02-24T18:57:49.595Z,5.99
2023-02-24T19:00:17.907Z,6.68
2023-02-24T19:02:47.294Z,6.58
2023-02-24T19:05:14.834Z,6.80
2023-02-24T19:07:43.853Z,6.02
2023-02-24T19:10:12.675Z,6.06
2023-02-24T19:12:40.095Z,6.30
2023-02-24T19:15:08.529Z,6.88
2023-02-24T19:17:36.067Z,6.70
2023-02-24T19:20:03.495Z,6.93
2023-02-24T19:22:31.055Z,7.19
2023-02-24T19:24:59.810Z,6.70
2023-02-24T19:27:28.553Z,6.27
2023-02-24T19:29:56.740Z,7.32
2023-02-24T19:32:24.303Z,7.21
2023-02-24T19:34:51.777Z,6.96
2023-02-24T19:37:19.367Z,7.75
2023-02-24T19:39:46.798Z,7.48
2023-02-24T19:42:15.612Z,7.22
2023-02-24T19:44:43.323Z,7.21
2023-02-24T19:47:11.161Z,7.66
2023-02-24T19:49:38.845Z,7.58
2023-02-24T19:52:06.288Z,6.90
2023-02-24T19:54:33.695Z,7.88
2023-02-24T19:57:02.128Z,7.38
2023-02-24T19:59:30.981Z,7.92
2023-02-24T20:01:58.412Z,8.05
2023-02-24T20:04:26.049Z,8.95
2023-02-24T20:06:53.532Z,9.82
2023-02-24T20:09:22.093Z,9.93
2023-02-24T20:11:51.680Z,10.52
2023-02-24T20:14:20.721Z,10.23
2023-02-24T20:16:49.643Z,9.26
2023-02-24T20:19:18.001Z,8.84
2023-02-24T20:21:45.853Z,8.97
2023-02-24T20:24:17.515Z,8.11
2023-02-24T20:26:47.777Z,8.21
2023-02-24T20:29:16.272Z,7.85
2023-02-24T20:31:43.862Z,8.39
2023-02-24T20:34:14.390Z,6.92
2023-02-24T20:36:43.568Z,7.61
2023-02-24T20:39:13.916Z,7.41
2023-02-24T20:41:42.094Z,7.20
2023-02-24T20:44:10.492Z,6.50
2023-02-24T20:46:38.822Z,7.21
2023-02-24T20:49:08.767Z,7.17
2023-02-24T20:51:39.038Z,7.39
2023-02-24T20:54:07.116Z,7.31
2023-02-24T20:56:37.667Z,7.43
2023-02-24T20:59:08.349Z,7.44
2023-02-24T21:01:38.923Z,7.60
2023-02-24T21:04:07.951Z,7.19
2023-02-24T21:06:37.105Z,7.68
2023-02-24T21:09:05.499Z,7.81
2023-02-24T21:11:33.343Z,6.06
2023-02-24T21:14:01.211Z,6.60
2023-02-24T21:16:30.591Z,6.56
2023-02-24T21:18:59.266Z,6.47
2023-02-24T21:21:26.766Z,6.54
2023-02-24T21:23:56.637Z,6.96
2023-02-24T21:26:26.842Z,6.57
2023-02-24T21:28:57.429Z,6.55
2023-02-24T21:31:26.424Z,7.35
2023-02-24T21:33:55.237Z,7.43
2023-02-24T21:36:25.786Z,7.18
2023-02-24T21:38:55.643Z,6.95
2023-02-24T21:41:23.646Z,7.32
2023-02-24T21:43:54.676Z,6.13
2023-02-24T21:46:22.772Z,7.07
2023-02-24T21:48:54.702Z,7.10
2023-02-24T21:51:24.704Z,7.30
2023-02-24T21:53:54.883Z,7.51
2023-02-24T21:56:26.003Z,7.48
2023-02-24T21:58:55.184Z,6.56
2023-02-24T22:01:25.352Z,6.91
2023-02-24T22:03:54.268Z,7.02
2023-02-24T22:06:22.379Z,7.09
2023-02-24T22:08:50.046Z,6.74
2023-02-24T22:11:19.827Z,6.96
2023-02-24T22:13:49.237Z,6.51
2023-02-24T22:16:20.744Z,7.37
2023-02-24T22:18:49.234Z,6.79
2023-02-24T22:21:19.081Z,7.08
2023-02-24T22:23:47.726Z,7.24
2023-02-24T22:26:16.760Z,7.19
2023-02-24T22:28:46.735Z,7.27
2023-02-24T22:31:18.010Z,7.31
2023-02-24T22:33:46.163Z,7.13
2023-02-24T22:36:15.458Z,7.24
2023-02-24T22:38:45.556Z,6.87
2023-02-24T22:41:15.562Z,6.49
2023-02-24T22:43:43.443Z,7.51
2023-02-24T22:46:14.722Z,7.12
2023-02-24T22:48:43.773Z,7.59
2023-02-24T22:51:12.997Z,7.63
2023-02-24T22:53:42.528Z,6.69
2023-02-24T22:56:12.470Z,7.41
2023-02-24T22:58:40.077Z,7.19
2023-02-24T23:01:10.453Z,7.52
2023-02-24T23:03:38.314Z,7.64
2023-02-24T23:06:09.711Z,7.37
2023-02-24T23:08:39.428Z,6.95
2023-02-24T23:11:09.379Z,7.19
2023-02-24T23:13:38.247Z,6.72
2023-02-24T23:16:08.350Z,6.64
2023-02-24T23:18:37.096Z,6.43
2023-02-24T23:21:08.935Z,6.62
2023-02-24T23:23:37.809Z,7.05
2023-02-24T23:26:06.329Z,7.36
2023-02-24T23:28:33.764Z,6.95
2023-02-24T23:31:01.220Z,7.20
2023-02-24T23:33:28.887Z,7.16
2023-02-24T23:35:59.075Z,7.03
2023-02-24T23:38:27.885Z,6.73
2023-02-24T23:40:55.357Z,6.89
2023-02-24T23:43:23.085Z,7.49
2023-02-24T23:45:50.535Z,6.88
2023-02-24T23:48:18.192Z,6.37
2023-02-24T23:50:45.830Z,6.36
2023-02-24T23:53:13.390Z,7.10
2023-02-24T23:55:42.172Z,7.43
2023-02-24T23:58:09.605Z,6.91
